createdAt,value
2016-10-05T09:17:38.023Z,16012
2016-10-05T09:18:37.816Z,11868
2016-10-05T09:19:37.814Z,10820
2016-10-05T09:20:37.805Z,8996
2016-10-05T09:21:37.798Z,8364
2016-10-05T09:22:37.796Z,10260
2016-10-05T09:23:37.794Z,14936
2016-10-05T09:24:37.794Z,13528
2016-10-05T09:25:37.789Z,14204
2016-10-05T09:26:37.780Z,16176
2016-10-05T09:27:37.776Z,15724
2016-10-05T09:29:37.766Z,15368
2016-10-05T09:30:40.280Z,12028
2016-10-05T09:31:39.196Z,12156
2016-10-05T09:32:38.043Z,14160
2016-10-05T09:33:37.949Z,17792
2016-10-05T09:34:37.746Z,18624
2016-10-05T09:35:37.940Z,16192
2016-10-05T09:36:37.741Z,16448
2016-10-05T09:37:54.655Z,18112
2016-10-05T09:39:40.310Z,14104
2016-10-05T09:40:39.746Z,15432
2016-10-05T09:41:38.953Z,15356
2016-10-05T09:42:37.707Z,15120
2016-10-05T09:43:38.007Z,12840
2016-10-05T09:44:37.701Z,13016
2016-10-05T09:45:37.699Z,14936
2016-10-05T09:46:37.697Z,13724
2016-10-05T09:47:37.698Z,12172
2016-10-05T09:48:37.687Z,12200
2016-10-05T09:49:37.675Z,13360
2016-10-05T09:50:37.677Z,14068
2016-10-05T09:51:37.664Z,18880
2016-10-05T09:52:37.680Z,19264
2016-10-05T09:53:37.664Z,14504
2016-10-05T09:54:52.872Z,9684
2016-10-05T09:55:38.159Z,11340
2016-10-05T09:57:39.448Z,14076
2016-10-05T09:58:53.055Z,15748
2016-10-05T09:59:37.654Z,15348
2016-10-05T10:00:38.082Z,13804
2016-10-05T10:01:37.883Z,11124
2016-10-05T10:02:38.230Z,10608
2016-10-05T10:03:38.769Z,9716
2016-10-05T10:07:38.148Z,7108
2016-10-05T10:08:37.607Z,6128
2016-10-05T10:09:38.098Z,4360
2016-10-05T10:10:37.891Z,4512
2016-10-05T10:11:37.737Z,6672
2016-10-05T10:12:37.591Z,8108
2016-10-05T10:13:37.584Z,8056
2016-10-05T10:14:37.571Z,9536
2016-10-05T10:15:37.568Z,10496
2016-10-05T10:16:37.569Z,10568
2016-10-05T10:17:37.571Z,11644
2016-10-05T10:18:37.550Z,14260
2016-10-05T10:19:37.847Z,18432
2016-10-05T10:20:37.544Z,20416
2016-10-05T10:21:37.543Z,19744
2016-10-05T10:22:37.524Z,18144
2016-10-05T10:23:37.531Z,17824
2016-10-05T10:24:37.519Z,16832
2016-10-05T10:25:37.521Z,16768
2016-10-05T10:26:37.513Z,18336
2016-10-05T10:27:37.506Z,19520
2016-10-05T10:28:37.506Z,15808
2016-10-05T10:29:37.497Z,12420
2016-10-05T10:30:37.489Z,11772
2016-10-05T10:31:37.487Z,9352
2016-10-05T10:32:37.482Z,7864
2016-10-05T10:33:37.479Z,6968
2016-10-05T10:34:37.472Z,5336
2016-10-05T10:35:37.467Z,4112
2016-10-05T10:36:37.468Z,3580
2016-10-05T10:37:37.453Z,3960
2016-10-05T10:38:37.458Z,4280
2016-10-05T10:39:37.447Z,4968
2016-10-05T10:40:37.434Z,6308
2016-10-05T10:41:37.436Z,7848
2016-10-05T10:42:37.447Z,9700
2016-10-05T10:43:37.426Z,12392
2016-10-05T10:44:37.417Z,15132
2016-10-05T10:45:37.419Z,15448
2016-10-05T10:46:38.252Z,16504
2016-10-05T10:47:39.723Z,15868
2016-10-05T10:48:37.539Z,14836
2016-10-05T10:49:37.450Z,14748
2016-10-05T10:50:39.205Z,15752
2016-10-05T10:51:37.742Z,17472
2016-10-05T10:52:38.068Z,19520
2016-10-05T10:53:37.839Z,20288
2016-10-05T10:54:37.367Z,20512
2016-10-05T10:55:37.369Z,19456
2016-10-05T10:56:39.068Z,18208
2016-10-05T10:57:37.655Z,16960
2016-10-05T10:58:38.070Z,15968
2016-10-05T10:59:38.119Z,15760
2016-10-05T11:00:37.341Z,15988
2016-10-05T11:01:37.667Z,17312
2016-10-05T11:02:37.607Z,16220
2016-10-05T11:03:37.316Z,17088
2016-10-05T11:04:37.617Z,18304
2016-10-05T11:05:37.322Z,19360
2016-10-05T11:06:37.300Z,20000
2016-10-05T11:07:37.306Z,19360
2016-10-05T11:08:37.303Z,16384
2016-10-05T11:09:37.293Z,10552
2016-10-05T11:10:37.292Z,6332
2016-10-05T11:11:37.288Z,5052
2016-10-05T11:12:37.287Z,3988
2016-10-05T11:13:54.242Z,3380
2016-10-05T11:14:52.589Z,3980
2016-10-05T11:16:38.368Z,5240
2016-10-05T11:17:38.157Z,5340
2016-10-05T11:18:37.501Z,6520
2016-10-05T11:19:37.412Z,6240
2016-10-05T11:20:37.342Z,6884
2016-10-05T11:21:37.243Z,7160
2016-10-05T11:22:37.552Z,8524
2016-10-05T11:23:37.541Z,9700
2016-10-05T11:24:52.896Z,8424
2016-10-05T11:25:37.218Z,9164
2016-10-05T11:26:37.213Z,11008
2016-10-05T11:27:37.210Z,11644
2016-10-05T11:28:37.499Z,11896
2016-10-05T11:29:37.216Z,13728
2016-10-05T11:30:37.197Z,15928
2016-10-05T11:31:37.194Z,17312
2016-10-05T11:32:37.185Z,17696
2016-10-05T11:33:37.429Z,16480
2016-10-05T11:34:37.174Z,17536
2016-10-05T11:35:37.173Z,19360
2016-10-05T11:36:37.174Z,20128
2016-10-05T11:37:37.188Z,20096
2016-10-05T11:38:37.404Z,19392
2016-10-05T11:39:37.155Z,18816
2016-10-05T11:40:37.152Z,19040
2016-10-05T11:41:37.145Z,19968
2016-10-05T11:42:37.141Z,20960
2016-10-05T11:43:37.391Z,21440
2016-10-05T11:44:37.137Z,21408
2016-10-05T11:45:37.138Z,20544
2016-10-05T11:46:37.127Z,18944
2016-10-05T11:47:37.128Z,17344
2016-10-05T11:48:37.472Z,16108
2016-10-05T11:49:37.126Z,15364
2016-10-05T11:50:37.112Z,15496
2016-10-05T11:51:37.100Z,14732
2016-10-05T11:52:37.095Z,13780
2016-10-05T11:53:37.096Z,12560
2016-10-05T11:54:37.090Z,13600
2016-10-05T11:55:37.095Z,15284
2016-10-05T11:56:37.079Z,16024
2016-10-05T11:57:37.079Z,16800
2016-10-05T11:58:37.070Z,17856
2016-10-05T11:59:37.073Z,18656
2016-10-05T12:00:37.070Z,17344
2016-10-05T12:01:37.066Z,14240
2016-10-05T12:02:37.067Z,11436
2016-10-05T12:03:37.053Z,11032
2016-10-05T12:04:37.052Z,10276
2016-10-05T12:06:38.325Z,9884
2016-10-05T12:07:38.932Z,10084
2016-10-05T12:08:38.319Z,9568
2016-10-05T12:09:37.581Z,10260
2016-10-05T12:10:37.035Z,11988
2016-10-05T12:11:37.025Z,11512
2016-10-05T12:12:37.224Z,9124
2016-10-05T12:13:37.322Z,6640
2016-10-05T12:14:39.234Z,6844
2016-10-05T12:15:38.315Z,8160
2016-10-05T12:16:39.397Z,10064
2016-10-05T12:17:37.108Z,11216
2016-10-05T12:18:37.003Z,12184
2016-10-05T12:19:37.002Z,12068
2016-10-05T12:20:36.986Z,12272
2016-10-05T12:21:36.985Z,13512
2016-10-05T12:22:37.286Z,14964
2016-10-05T12:23:36.968Z,13788
2016-10-05T12:24:36.968Z,12416
2016-10-05T12:25:36.970Z,11888
2016-10-05T12:26:36.985Z,12560
2016-10-05T12:27:36.961Z,14740
2016-10-05T12:28:36.962Z,14624
2016-10-05T12:29:36.948Z,13560
2016-10-05T12:30:36.948Z,12660
2016-10-05T12:31:37.145Z,12624
2016-10-05T12:32:37.240Z,12124
2016-10-05T12:34:37.634Z,13816
2016-10-05T12:35:37.873Z,13660
2016-10-05T12:36:37.765Z,9616
2016-10-05T12:37:36.918Z,6592
2016-10-05T12:38:36.959Z,5676
2016-10-05T12:39:36.908Z,5360
2016-10-05T12:40:38.028Z,5576
2016-10-05T12:41:51.813Z,7768
2016-10-05T12:42:36.892Z,10492
2016-10-05T12:43:51.810Z,12480
2016-10-05T12:44:36.879Z,12156
2016-10-05T12:45:36.932Z,13684
2016-10-05T12:46:36.877Z,16608
2016-10-05T12:47:37.020Z,17504
2016-10-05T12:48:36.866Z,18112
2016-10-05T12:49:36.872Z,17632
2016-10-05T12:50:36.848Z,17280
2016-10-05T12:51:36.860Z,16480
2016-10-05T12:52:36.856Z,15988
2016-10-05T12:53:36.852Z,15932
2016-10-05T12:54:36.850Z,17184
2016-10-05T12:55:36.851Z,16096
2016-10-05T12:56:36.826Z,14188
2016-10-05T12:57:36.829Z,13560
2016-10-05T12:58:36.829Z,13316
2016-10-05T12:59:36.823Z,12480
2016-10-05T13:00:36.821Z,12344
2016-10-05T13:01:36.833Z,11800
2016-10-05T13:02:36.795Z,11400
2016-10-05T13:03:36.806Z,11080
2016-10-05T13:04:36.794Z,11228
2016-10-05T13:05:36.795Z,11736
2016-10-05T13:06:37.099Z,13044
2016-10-05T13:07:36.982Z,13144
2016-10-05T13:08:36.778Z,13124
2016-10-05T13:09:36.783Z,12248
2016-10-05T13:10:36.787Z,11580
2016-10-05T13:11:36.763Z,11040
2016-10-05T13:12:36.760Z,10360
2016-10-05T13:13:36.754Z,9720
2016-10-05T13:14:36.746Z,8980
2016-10-05T13:15:36.750Z,7764
2016-10-05T13:16:36.740Z,8240
2016-10-05T13:17:36.733Z,7988
2016-10-05T13:18:36.743Z,7352
2016-10-05T13:19:36.740Z,7820
2016-10-05T13:20:36.725Z,8064
2016-10-05T13:21:36.714Z,7968
2016-10-05T13:22:36.716Z,7292
2016-10-05T13:23:37.939Z,6448
2016-10-05T13:24:37.615Z,5804
2016-10-05T13:25:39.109Z,6980
2016-10-05T13:26:37.265Z,6524
2016-10-05T13:27:37.312Z,5012
2016-10-05T13:28:36.950Z,4676
2016-10-05T13:29:36.680Z,4324
2016-10-05T13:30:36.672Z,4628
2016-10-05T13:31:36.685Z,5256
2016-10-05T13:32:37.245Z,6132
2016-10-05T13:33:37.443Z,5352
2016-10-05T13:34:39.481Z,5644
2016-10-05T13:35:37.974Z,4368
2016-10-05T13:36:36.641Z,5048
2016-10-05T13:37:36.642Z,6180
2016-10-05T13:38:36.637Z,5748
2016-10-05T13:39:36.634Z,5240
2016-10-05T13:40:36.634Z,4796
2016-10-05T13:41:36.622Z,4268
2016-10-05T13:42:36.622Z,5124
2016-10-05T13:43:36.605Z,4956
2016-10-05T13:44:36.599Z,5536
2016-10-05T13:45:36.587Z,5252
2016-10-05T13:46:36.584Z,4844
2016-10-05T13:47:36.580Z,4688
2016-10-05T13:48:36.575Z,4776
2016-10-05T13:49:51.839Z,4656
2016-10-05T13:51:37.320Z,4460
2016-10-05T13:52:36.708Z,3676
2016-10-05T13:53:52.029Z,2344
2016-10-05T13:54:36.560Z,2280
2016-10-05T13:55:36.537Z,2768
2016-10-05T13:56:36.835Z,4156
2016-10-05T13:57:36.521Z,4992
2016-10-05T13:59:37.272Z,4456
2016-10-05T14:00:38.631Z,4016
2016-10-05T14:01:37.902Z,3504
2016-10-05T14:02:36.707Z,3872
2016-10-05T14:03:36.495Z,4176
2016-10-05T14:04:36.481Z,3340
2016-10-05T14:05:36.469Z,3312
2016-10-05T14:06:36.479Z,3152
2016-10-05T14:07:36.464Z,3184
2016-10-05T14:08:36.460Z,3160
2016-10-05T14:09:36.451Z,2400
2016-10-05T14:10:36.456Z,1816
2016-10-05T14:11:36.444Z,1760
2016-10-05T14:12:36.437Z,2336
2016-10-05T14:13:36.439Z,2648
2016-10-05T14:14:36.426Z,2888
2016-10-05T14:15:36.415Z,2888
2016-10-05T14:16:36.411Z,2864
2016-10-05T14:17:36.404Z,2680
2016-10-05T14:18:36.394Z,2640
2016-10-05T14:19:36.397Z,2396
2016-10-05T14:20:36.385Z,2364
2016-10-05T14:21:36.381Z,2060
2016-10-05T14:22:36.375Z,2152
2016-10-05T14:23:36.371Z,2200
2016-10-05T14:24:36.361Z,2504
2016-10-05T14:25:36.653Z,2428
2016-10-05T14:26:36.349Z,2272
2016-10-05T14:27:36.337Z,1860
2016-10-05T14:28:36.339Z,1540
2016-10-05T14:29:36.330Z,1852
2016-10-05T14:30:36.329Z,2324
2016-10-05T14:31:36.327Z,2428
2016-10-05T14:32:36.307Z,2820
2016-10-05T14:33:36.302Z,2628
2016-10-05T14:34:36.300Z,2368
2016-10-05T14:35:36.306Z,2208
2016-10-05T14:36:36.281Z,2364
2016-10-05T14:37:36.282Z,2516
2016-10-05T14:38:36.275Z,2740
2016-10-05T14:39:36.263Z,2316
2016-10-05T14:40:36.257Z,2300
2016-10-05T14:41:39.255Z,2324
2016-10-05T14:42:37.890Z,2532
2016-10-05T14:43:36.754Z,2860
2016-10-05T14:44:36.230Z,3104
2016-10-05T14:45:36.555Z,2624
2016-10-05T14:46:36.950Z,2364
2016-10-05T14:47:36.369Z,2316
2016-10-05T14:48:36.226Z,2308
2016-10-05T14:49:36.198Z,2220
2016-10-05T14:50:38.456Z,2196
2016-10-05T14:51:39.165Z,2504
2016-10-05T14:52:36.589Z,2424
2016-10-05T14:53:36.175Z,2456
2016-10-05T14:54:37.197Z,2084
2016-10-05T14:55:36.179Z,1940
2016-10-05T14:56:36.169Z,1740
2016-10-05T14:57:36.145Z,1644
2016-10-05T14:58:36.152Z,1356
2016-10-05T14:59:36.135Z,1392
2016-10-05T15:00:36.133Z,1472
2016-10-05T15:01:36.122Z,1328
2016-10-05T15:02:36.137Z,1456
2016-10-05T15:03:36.106Z,1620
2016-10-05T15:04:36.095Z,1304
2016-10-05T15:05:36.099Z,1088
2016-10-05T15:06:36.089Z,1076
2016-10-05T15:08:52.030Z,1228
2016-10-05T15:09:51.934Z,1416
2016-10-05T15:10:36.052Z,1460
2016-10-05T15:11:37.207Z,1708
2016-10-05T15:12:36.041Z,1776
2016-10-05T15:13:36.180Z,1696
2016-10-05T15:14:36.024Z,1564
2016-10-05T15:15:36.318Z,1468
2016-10-05T15:16:37.160Z,1392
2016-10-05T15:17:37.960Z,1360
2016-10-05T15:19:37.494Z,1328
2016-10-05T15:21:36.889Z,1376
2016-10-05T15:22:35.969Z,1456
2016-10-05T15:23:35.962Z,1468
2016-10-05T15:24:35.953Z,1324
2016-10-05T15:25:36.252Z,1236
2016-10-05T15:26:35.940Z,1300
2016-10-05T15:27:35.933Z,1280
2016-10-05T15:28:35.928Z,1236
2016-10-05T15:29:35.916Z,1216
2016-10-05T15:30:36.155Z,1180
2016-10-05T15:31:35.891Z,1148
2016-10-05T15:32:35.875Z,1084
2016-10-05T15:33:35.893Z,896
2016-10-05T15:34:35.873Z,820
2016-10-05T15:35:36.122Z,788
2016-10-05T15:36:35.846Z,816
2016-10-05T15:37:35.845Z,852
2016-10-05T15:38:35.841Z,864
2016-10-05T15:39:35.832Z,776
2016-10-05T15:40:36.080Z,824
2016-10-05T15:41:35.819Z,844
2016-10-05T15:42:35.818Z,876
2016-10-05T15:43:35.801Z,928
2016-10-05T15:44:35.798Z,1036
2016-10-05T15:45:36.033Z,976
2016-10-05T15:46:35.781Z,1044
2016-10-05T15:47:35.763Z,1040
2016-10-05T15:48:35.758Z,1148
2016-10-05T15:49:35.750Z,984
2016-10-05T15:50:35.751Z,1032
2016-10-05T15:51:35.737Z,812
2016-10-05T15:52:35.718Z,924
2016-10-05T15:53:35.720Z,1152
2016-10-05T15:54:35.708Z,1128
2016-10-05T15:55:35.704Z,1288
2016-10-05T15:56:35.693Z,1212
2016-10-05T15:57:35.687Z,1160
2016-10-05T15:58:35.687Z,1224
2016-10-05T15:59:38.520Z,1244
2016-10-05T16:00:35.762Z,1212
2016-10-05T16:01:36.805Z,928
2016-10-05T16:02:36.316Z,756
2016-10-05T16:03:35.643Z,728
2016-10-05T16:04:35.911Z,768
2016-10-05T16:05:35.948Z,720
2016-10-05T16:06:35.614Z,648
2016-10-05T16:07:35.605Z,612
2016-10-05T16:08:38.325Z,624
2016-10-05T16:10:37.989Z,600
2016-10-05T16:11:38.020Z,472
2016-10-05T16:12:35.566Z,480
2016-10-05T16:13:36.453Z,428
2016-10-05T16:14:35.853Z,356
2016-10-05T16:15:35.539Z,324
2016-10-05T16:16:35.541Z,284
2016-10-05T16:17:35.519Z,272
2016-10-05T16:18:35.514Z,240
2016-10-05T16:19:35.506Z,216
2016-10-05T16:20:35.494Z,172
2016-10-05T16:21:35.491Z,140
2016-10-05T16:22:35.489Z,144
2016-10-05T16:23:35.467Z,136
2016-10-05T16:24:35.463Z,112
2016-10-05T16:25:35.463Z,108
2016-10-05T16:26:36.008Z,92
2016-10-05T16:27:35.439Z,100
2016-10-05T16:28:35.901Z,92
2016-10-05T16:29:50.341Z,84
2016-10-05T16:30:36.376Z,72
2016-10-05T16:31:35.404Z,64
2016-10-05T16:32:35.747Z,64
2016-10-05T16:33:35.597Z,56
2016-10-05T16:34:35.380Z,48
2016-10-05T16:35:50.487Z,40
2016-10-05T16:36:50.478Z,32
2016-10-05T16:38:36.596Z,32
2016-10-05T16:39:50.255Z,28
2016-10-05T16:40:35.884Z,28
2016-10-05T16:41:35.318Z,24
2016-10-05T16:42:35.322Z,24
2016-10-05T16:43:35.303Z,20
2016-10-05T16:44:35.306Z,20
2016-10-05T16:45:35.295Z,16
2016-10-05T16:46:35.284Z,16
2016-10-05T16:47:35.274Z,16
2016-10-05T16:48:35.264Z,12
2016-10-05T16:49:35.250Z,12
2016-10-05T16:50:35.237Z,12
2016-10-05T16:51:35.236Z,12
2016-10-05T16:52:35.230Z,12
2016-10-05T16:53:35.224Z,12
2016-10-05T16:54:35.208Z,8
2016-10-05T16:55:35.207Z,8
2016-10-05T16:56:35.198Z,12
2016-10-05T16:57:35.189Z,8
2016-10-05T16:58:35.180Z,8
2016-10-05T16:59:35.164Z,8
2016-10-05T17:00:35.167Z,8
2016-10-05T17:01:35.152Z,8
2016-10-05T17:02:35.144Z,8
2016-10-05T17:03:35.145Z,8
2016-10-05T17:04:35.130Z,8
2016-10-05T17:05:35.114Z,8
2016-10-05T17:06:35.112Z,8
2016-10-05T17:07:35.103Z,8
2016-10-05T17:08:35.097Z,8
2016-10-05T17:09:35.084Z,8
2016-10-05T17:10:35.077Z,8
2016-10-05T17:11:35.065Z,8
2016-10-05T17:12:35.059Z,8
2016-10-05T17:13:35.053Z,8
2016-10-05T17:14:35.046Z,8
2016-10-05T17:15:35.028Z,8
2016-10-05T17:16:35.028Z,8
2016-10-05T17:17:35.016Z,8
2016-10-05T17:19:36.603Z,8
2016-10-05T17:20:37.086Z,8
2016-10-05T17:21:36.337Z,8
2016-10-05T17:22:35.530Z,8
2016-10-05T17:23:34.965Z,8
2016-10-05T17:24:34.955Z,8
2016-10-05T17:25:34.953Z,8
2016-10-05T17:26:34.941Z,8
2016-10-05T17:27:38.473Z,8
2016-10-05T17:28:37.607Z,8
2016-10-05T17:29:36.502Z,8
2016-10-05T17:30:36.218Z,8
2016-10-05T17:31:35.797Z,8
2016-10-05T17:32:34.987Z,8
2016-10-05T17:33:35.533Z,8
2016-10-05T17:34:34.870Z,8
2016-10-05T17:35:34.869Z,8
2016-10-05T17:36:34.855Z,8
2016-10-05T17:37:34.852Z,8
2016-10-05T17:38:34.855Z,8
2016-10-05T17:39:34.839Z,8
2016-10-05T17:40:34.829Z,8
2016-10-05T17:41:34.814Z,8
2016-10-05T17:42:34.799Z,8
2016-10-05T17:43:34.795Z,8
2016-10-05T17:44:50.654Z,8
2016-10-05T17:45:35.071Z,8
2016-10-05T17:46:50.985Z,8
2016-10-05T17:47:35.464Z,8
2016-10-05T17:48:49.662Z,8
2016-10-05T17:49:34.741Z,8
2016-10-05T17:50:35.287Z,8
2016-10-05T17:51:34.984Z,8
2016-10-05T17:52:34.716Z,8
2016-10-05T17:53:49.615Z,8
2016-10-05T17:54:50.213Z,8
2016-10-05T17:55:35.542Z,8
2016-10-05T17:57:34.671Z,8
2016-10-05T17:58:34.821Z,8
2016-10-05T17:59:34.658Z,8
2016-10-05T18:00:34.651Z,8
2016-10-05T18:01:34.986Z,8
2016-10-05T18:02:34.628Z,8
2016-10-05T18:03:34.626Z,8
2016-10-05T18:04:34.623Z,8
2016-10-05T18:05:34.625Z,8
2016-10-05T18:06:34.843Z,8
2016-10-05T18:07:34.586Z,8
2016-10-05T18:08:34.579Z,8
2016-10-05T18:09:34.571Z,8
2016-10-05T18:10:34.564Z,8
2016-10-05T18:11:34.811Z,8
2016-10-05T18:12:34.542Z,8
2016-10-05T18:13:34.535Z,8
2016-10-05T18:14:34.524Z,8
2016-10-05T18:15:34.524Z,8
2016-10-05T18:16:34.802Z,8
2016-10-05T18:17:34.505Z,8
2016-10-05T18:18:34.501Z,8
2016-10-05T18:19:34.482Z,0
2016-10-05T18:20:34.474Z,0
2016-10-05T18:21:34.715Z,0
2016-10-05T18:22:34.460Z,0
2016-10-05T18:23:34.443Z,0
2016-10-05T18:24:34.445Z,0
2016-10-05T18:25:34.448Z,0
2016-10-05T18:26:34.678Z,0
2016-10-05T18:27:34.410Z,0
2016-10-05T18:28:34.416Z,0
2016-10-05T18:29:34.403Z,0
2016-10-05T18:30:34.397Z,0
2016-10-05T18:31:34.385Z,0
2016-10-05T18:32:34.393Z,0
2016-10-05T18:33:34.362Z,0
2016-10-05T18:34:34.374Z,0
2016-10-05T18:35:34.346Z,0
2016-10-05T18:37:35.728Z,0
2016-10-05T18:38:34.329Z,0
2016-10-05T18:39:35.204Z,0
2016-10-05T18:40:35.158Z,0
2016-10-05T18:41:34.320Z,4
2016-10-05T18:42:34.282Z,4
2016-10-05T18:43:34.280Z,8
2016-10-05T18:44:34.264Z,8
2016-10-05T18:45:35.946Z,4
2016-10-05T18:46:36.442Z,0
2016-10-05T18:47:36.282Z,0
2016-10-05T18:48:34.831Z,0
2016-10-05T18:49:35.237Z,0
2016-10-05T18:50:34.792Z,0
2016-10-05T18:51:34.211Z,0
2016-10-05T18:52:34.200Z,0
2016-10-05T18:53:34.190Z,0
2016-10-05T18:54:34.177Z,0
2016-10-05T18:55:34.170Z,0
2016-10-05T18:56:34.156Z,0
2016-10-05T18:57:34.158Z,0
2016-10-05T18:58:34.142Z,0
2016-10-05T18:59:34.131Z,0
2016-10-05T19:00:34.124Z,0
2016-10-05T19:01:34.119Z,0
2016-10-05T19:03:34.293Z,0
2016-10-05T19:05:34.089Z,0
2016-10-05T19:06:34.073Z,0
2016-10-05T19:07:34.118Z,0
2016-10-05T19:08:34.316Z,0
2016-10-05T19:09:34.050Z,0
2016-10-05T19:10:34.141Z,0
2016-10-05T19:11:34.688Z,0
2016-10-05T19:12:34.819Z,0
2016-10-05T19:13:34.621Z,0
2016-10-05T19:15:49.077Z,0
2016-10-05T19:16:33.991Z,0
2016-10-05T19:17:33.973Z,0
2016-10-05T19:18:33.973Z,0
2016-10-05T19:19:33.962Z,0
2016-10-05T19:20:33.958Z,0
2016-10-05T19:21:33.953Z,0
2016-10-05T19:22:33.938Z,0
2016-10-05T19:23:33.929Z,0
2016-10-05T19:24:33.923Z,0
2016-10-05T19:25:33.913Z,0
2016-10-05T19:26:33.911Z,0
2016-10-05T19:27:33.888Z,0
2016-10-05T19:28:33.888Z,0
2016-10-05T19:29:33.874Z,0
2016-10-05T19:30:33.864Z,0
2016-10-05T19:31:33.863Z,0
2016-10-05T19:32:33.850Z,0
2016-10-05T19:33:33.842Z,0
2016-10-05T19:34:33.830Z,0
2016-10-05T19:35:33.827Z,0
2016-10-05T19:36:33.816Z,0
2016-10-05T19:37:33.811Z,0
2016-10-05T19:38:33.806Z,0
2016-10-05T19:39:33.791Z,0
2016-10-05T19:40:33.781Z,0
2016-10-05T19:41:33.770Z,0
2016-10-05T19:42:34.069Z,0
2016-10-05T19:43:33.752Z,0
2016-10-05T19:44:33.763Z,0
2016-10-05T19:45:33.743Z,0
2016-10-05T19:46:33.733Z,0
2016-10-05T19:47:33.728Z,0
2016-10-05T19:48:33.724Z,0
2016-10-05T19:49:33.712Z,0
2016-10-05T19:50:33.699Z,0
2016-10-05T19:51:33.691Z,0
2016-10-05T19:52:33.673Z,0
2016-10-05T19:53:33.667Z,0
2016-10-05T19:54:36.436Z,0
2016-10-05T19:55:36.991Z,0
2016-10-05T19:56:33.933Z,0
2016-10-05T19:57:33.652Z,0
2016-10-05T19:58:34.048Z,0
2016-10-05T19:59:34.570Z,0
2016-10-05T20:00:34.154Z,0
2016-10-05T20:01:33.602Z,0
2016-10-05T20:02:33.603Z,0
2016-10-05T20:03:34.231Z,0
2016-10-05T20:04:35.326Z,0
2016-10-05T20:05:36.391Z,0
2016-10-05T20:06:35.809Z,0
2016-10-05T20:07:34.235Z,0
2016-10-05T20:08:33.543Z,0
2016-10-05T20:09:33.543Z,0
2016-10-05T20:10:33.537Z,0
2016-10-05T20:11:33.506Z,0
2016-10-05T20:12:33.507Z,0
2016-10-05T20:13:33.507Z,0
2016-10-05T20:14:33.492Z,0
2016-10-05T20:15:33.479Z,0
2016-10-05T20:16:33.473Z,0
2016-10-05T20:17:33.475Z,0
2016-10-05T20:18:33.458Z,0
2016-10-05T20:19:33.444Z,0
2016-10-05T20:20:48.352Z,0
2016-10-05T20:21:35.032Z,0
2016-10-05T20:23:34.311Z,0
2016-10-05T20:24:33.815Z,0
2016-10-05T20:25:33.415Z,0
2016-10-05T20:26:33.684Z,0
2016-10-05T20:27:33.925Z,0
2016-10-05T20:28:33.439Z,0
2016-10-05T20:29:33.366Z,0
2016-10-05T20:30:48.972Z,0
2016-10-05T20:32:03.379Z,0
2016-10-05T20:32:33.917Z,0
2016-10-05T20:33:33.989Z,0
2016-10-05T20:34:33.421Z,0
2016-10-05T20:35:33.606Z,0
2016-10-05T20:36:33.313Z,0
2016-10-05T20:37:33.547Z,0
2016-10-05T20:38:33.282Z,0
2016-10-05T20:39:33.272Z,0
2016-10-05T20:40:33.264Z,0
2016-10-05T20:41:33.259Z,0
2016-10-05T20:42:33.557Z,0
2016-10-05T20:43:33.251Z,0
2016-10-05T20:44:33.234Z,0
2016-10-05T20:45:33.220Z,0
2016-10-05T20:46:33.224Z,0
2016-10-05T20:47:33.206Z,0
2016-10-05T20:48:33.198Z,0
2016-10-05T20:49:33.193Z,0
2016-10-05T20:50:33.183Z,0
2016-10-05T20:51:33.177Z,0
2016-10-05T20:52:33.170Z,0
2016-10-05T20:53:33.179Z,0
2016-10-05T20:54:33.150Z,0
2016-10-05T20:55:33.139Z,0
2016-10-05T20:56:33.138Z,0
2016-10-05T20:57:33.119Z,0
2016-10-05T20:58:33.120Z,0
2016-10-05T20:59:33.107Z,0
2016-10-05T21:00:33.109Z,0
2016-10-05T21:01:33.094Z,0
2016-10-05T21:02:33.076Z,0
2016-10-05T21:03:33.072Z,0
2016-10-05T21:04:33.064Z,0
2016-10-05T21:05:33.062Z,0
2016-10-05T21:06:33.046Z,0
2016-10-05T21:07:33.038Z,0
2016-10-05T21:08:33.034Z,0
2016-10-05T21:09:33.020Z,0
2016-10-05T21:10:33.016Z,0
2016-10-05T21:11:33.005Z,0
2016-10-05T21:12:33.904Z,0
2016-10-05T21:13:35.319Z,0
2016-10-05T21:14:33.326Z,0
2016-10-05T21:15:33.384Z,0
2016-10-05T21:16:33.157Z,0
2016-10-05T21:17:33.940Z,0
2016-10-05T21:18:32.954Z,0
2016-10-05T21:19:32.934Z,0
2016-10-05T21:20:32.929Z,0
2016-10-05T21:21:32.910Z,0
2016-10-05T21:22:33.445Z,0
2016-10-05T21:23:35.415Z,0
2016-10-05T21:24:32.894Z,0
2016-10-05T21:25:32.890Z,0
2016-10-05T21:26:34.022Z,0
2016-10-05T21:27:32.881Z,0
2016-10-05T21:28:32.924Z,0
2016-10-05T21:29:32.859Z,0
2016-10-05T21:30:32.846Z,0
2016-10-05T21:31:32.835Z,0
2016-10-05T21:32:32.826Z,0
2016-10-05T21:33:32.822Z,0
2016-10-05T21:34:32.816Z,0
2016-10-05T21:35:32.813Z,0
2016-10-05T21:36:32.799Z,0
2016-10-05T21:37:32.788Z,0
2016-10-05T21:38:32.780Z,0
2016-10-05T21:39:48.079Z,0
2016-10-05T21:41:03.239Z,0
2016-10-05T21:41:33.204Z,0
2016-10-05T21:42:47.858Z,0
2016-10-05T21:43:32.733Z,0
2016-10-05T21:44:32.728Z,0
2016-10-05T21:45:32.717Z,0
2016-10-05T21:46:32.714Z,0
2016-10-05T21:47:32.705Z,0
2016-10-05T21:48:36.643Z,0
2016-10-05T21:49:33.835Z,0
2016-10-05T21:50:32.683Z,0
2016-10-05T21:51:34.315Z,0
2016-10-05T21:52:32.659Z,0
2016-10-05T21:53:33.800Z,0
2016-10-05T21:54:32.795Z,0
2016-10-05T21:55:32.633Z,0
2016-10-05T21:56:32.627Z,0
2016-10-05T21:57:32.618Z,0
2016-10-05T21:58:32.855Z,0
2016-10-05T21:59:32.597Z,0
2016-10-05T22:00:32.595Z,0
2016-10-05T22:01:32.580Z,0
2016-10-05T22:02:32.577Z,0
2016-10-05T22:03:32.820Z,0
2016-10-05T22:04:32.556Z,0
2016-10-05T22:05:32.558Z,0
2016-10-05T22:06:32.542Z,0
2016-10-05T22:07:32.556Z,0
2016-10-05T22:08:32.773Z,0
2016-10-05T22:09:32.514Z,0
2016-10-05T22:10:32.508Z,0
2016-10-05T22:11:32.501Z,0
2016-10-05T22:12:32.491Z,0
2016-10-05T22:13:32.777Z,0
2016-10-05T22:14:32.483Z,0
2016-10-05T22:15:32.476Z,0
2016-10-05T22:16:32.473Z,0
2016-10-05T22:17:32.456Z,0
2016-10-05T22:18:32.686Z,0
2016-10-05T22:19:32.433Z,0
2016-10-05T22:20:32.426Z,0
2016-10-05T22:21:32.413Z,0
2016-10-05T22:22:32.408Z,0
2016-10-05T22:23:32.693Z,0
2016-10-05T22:24:32.384Z,0
2016-10-05T22:25:32.677Z,0
2016-10-05T22:26:32.369Z,0
2016-10-05T22:27:32.358Z,0
2016-10-05T22:28:32.350Z,0
2016-10-05T22:29:32.348Z,0
2016-10-05T22:30:32.344Z,0
2016-10-05T22:31:33.375Z,0
2016-10-05T22:32:32.321Z,0
2016-10-05T22:33:33.207Z,0
2016-10-05T22:34:33.932Z,0
2016-10-05T22:35:33.297Z,0
2016-10-05T22:36:32.290Z,0
2016-10-05T22:37:32.767Z,0
2016-10-05T22:38:32.272Z,0
2016-10-05T22:39:32.273Z,0
2016-10-05T22:41:33.749Z,0
2016-10-05T22:42:34.902Z,0
2016-10-05T22:43:32.841Z,0
2016-10-05T22:44:32.687Z,0
2016-10-05T22:45:32.213Z,0
2016-10-05T22:46:32.821Z,0
2016-10-05T22:47:32.200Z,0
2016-10-05T22:48:32.190Z,0
2016-10-05T22:49:32.178Z,0
2016-10-05T22:50:32.180Z,0
2016-10-05T22:51:32.165Z,0
2016-10-05T22:52:32.156Z,0
2016-10-05T22:53:32.144Z,0
2016-10-05T22:54:32.132Z,0
2016-10-05T22:55:32.131Z,0
2016-10-05T22:56:32.137Z,0
2016-10-05T22:57:32.560Z,0
2016-10-05T22:58:32.808Z,0
2016-10-05T23:00:47.551Z,0
2016-10-05T23:02:32.323Z,0
2016-10-05T23:03:32.065Z,0
2016-10-05T23:04:32.069Z,0
2016-10-05T23:05:32.038Z,0
2016-10-05T23:06:32.529Z,0
2016-10-05T23:07:46.943Z,0
2016-10-05T23:08:32.516Z,0
2016-10-05T23:09:32.163Z,0
2016-10-05T23:10:32.000Z,0
2016-10-05T23:11:32.348Z,0
2016-10-05T23:12:32.136Z,0
2016-10-05T23:13:31.987Z,0
2016-10-05T23:14:31.975Z,0
2016-10-05T23:15:31.960Z,0
2016-10-05T23:16:31.957Z,0
2016-10-05T23:17:31.947Z,0
2016-10-05T23:18:32.237Z,0
2016-10-05T23:19:31.931Z,0
2016-10-05T23:20:31.932Z,0
2016-10-05T23:21:31.909Z,0
2016-10-05T23:22:31.904Z,0
2016-10-05T23:23:31.897Z,0
2016-10-05T23:24:31.888Z,0
2016-10-05T23:25:31.882Z,0
2016-10-05T23:26:31.872Z,0
2016-10-05T23:27:31.865Z,0
2016-10-05T23:28:31.854Z,0
2016-10-05T23:29:31.847Z,0
2016-10-05T23:30:31.838Z,0
2016-10-05T23:31:31.830Z,0
2016-10-05T23:32:31.810Z,0
2016-10-05T23:33:31.814Z,0
2016-10-05T23:34:31.801Z,0
2016-10-05T23:35:31.796Z,0
2016-10-05T23:36:31.790Z,0
2016-10-05T23:37:31.797Z,0
2016-10-05T23:38:31.769Z,0